createdAt,value
2023-01-07T04:02:42.683Z,1999.90
2023-01-07T04:06:00.984Z,1999.90
2023-01-07T04:09:12.478Z,1999.90
2023-01-07T04:12:22.531Z,1999.90
2023-01-07T04:15:32.839Z,1999.90
2023-01-07T04:18:44.034Z,1999.90
2023-01-07T04:21:53.808Z,1999.90
2023-01-07T04:25:03.887Z,1999.90
2023-01-07T04:28:14.926Z,1999.90
2023-01-07T04:31:24.789Z,1999.90
2023-01-07T04:34:36.016Z,1999.90
2023-01-07T04:37:46.942Z,1999.90
2023-01-07T04:40:56.842Z,1999.90
2023-01-07T04:44:07.093Z,1999.90
2023-01-07T04:47:17.039Z,1999.90
2023-01-07T04:50:28.870Z,1999.90
2023-01-07T04:53:39.132Z,38.20
2023-01-07T04:56:49.594Z,1999.90
2023-01-07T04:59:59.729Z,1999.90
2023-01-07T05:03:09.633Z,1999.90
2023-01-07T05:06:21.634Z,1999.90
2023-01-07T05:09:31.576Z,1999.90
2023-01-07T05:12:41.325Z,1999.90
2023-01-07T05:15:53.462Z,1999.90
2023-01-07T05:19:04.184Z,1999.90
2023-01-07T05:22:19.789Z,1999.90
2023-01-07T05:25:29.599Z,1999.90
2023-01-07T05:28:40.240Z,1387.23
2023-01-07T05:31:50.102Z,1999.90
2023-01-07T05:35:01.921Z,117.77
2023-01-07T05:38:13.221Z,1411.93
2023-01-07T05:41:23.098Z,1999.90
2023-01-07T05:44:32.953Z,1999.90
2023-01-07T05:47:43.929Z,1999.90
2023-01-07T05:50:53.764Z,1999.90
2023-01-07T05:54:04.740Z,102.83
2023-01-07T05:57:14.470Z,1999.90
2023-01-07T08:34:37.701Z,54.10
2023-01-07T08:37:47.520Z,53.23
2023-01-07T08:40:57.319Z,50.93
2023-01-07T08:44:07.151Z,53.53
2023-01-07T08:47:16.903Z,51.20
2023-01-07T08:50:29.283Z,48.10
2023-01-07T08:53:39.223Z,56.07
2023-01-07T08:56:48.941Z,43.80
2023-01-07T08:59:58.748Z,38.50
2023-01-07T09:03:08.749Z,31.53
2023-01-07T09:06:19.827Z,34.37
2023-01-07T09:09:29.620Z,41.03
2023-01-07T09:12:39.845Z,42.60
2023-01-07T09:15:49.725Z,48.10
2023-01-07T09:18:59.525Z,41.13
2023-01-07T09:22:10.599Z,32.97
2023-01-07T09:25:20.320Z,42.07
2023-01-07T09:28:30.092Z,37.77
2023-01-07T09:31:39.858Z,38.83
2023-01-07T09:34:49.709Z,40.27
2023-01-07T09:38:00.955Z,38.23
2023-01-07T09:41:28.115Z,33.67
2023-01-07T09:44:54.912Z,41.93
2023-01-07T09:48:12.105Z,35.27
2023-01-07T09:51:27.213Z,31.73
2023-01-07T09:54:39.616Z,49.67
2023-01-07T09:57:52.688Z,43.70
2023-01-07T10:01:13.188Z,42.73
2023-01-07T10:04:34.364Z,44.70
2023-01-07T10:07:52.878Z,50.30
2023-01-07T10:11:37.093Z,46.97
2023-01-07T10:15:01.567Z,48.67
2023-01-07T10:18:31.409Z,56.23
2023-01-07T10:21:44.057Z,45.70
2023-01-07T10:24:58.672Z,40.90
2023-01-07T10:28:16.020Z,36.93
2023-01-07T10:31:28.025Z,38.60
2023-01-07T10:34:44.573Z,46.40
2023-01-07T10:37:58.931Z,45.17
2023-01-07T10:41:14.174Z,41.30
2023-01-07T10:44:44.378Z,45.63
2023-01-07T10:48:10.493Z,43.37
2023-01-07T10:51:37.888Z,46.93
2023-01-07T10:55:04.220Z,43.67
2023-01-07T10:58:14.147Z,45.97
2023-01-07T11:01:28.258Z,46.43
2023-01-07T11:04:38.038Z,46.50
2023-01-07T11:07:51.979Z,52.17
2023-01-07T11:11:01.849Z,47.23
2023-01-07T11:14:14.880Z,46.97
2023-01-07T11:17:33.356Z,48.13
2023-01-07T11:20:48.830Z,54.97
2023-01-07T11:23:58.569Z,53.70
2023-01-07T11:27:15.650Z,43.90
2023-01-07T11:30:27.980Z,48.03
2023-01-07T11:34:02.929Z,53.17
2023-01-07T11:37:14.119Z,47.40
2023-01-07T11:40:27.776Z,55.63
2023-01-07T11:43:40.690Z,72.40
2023-01-07T11:46:50.790Z,43.97
2023-01-07T11:50:02.019Z,52.50
2023-01-07T11:53:25.594Z,54.90
2023-01-07T11:56:35.783Z,52.10
2023-01-07T11:59:45.514Z,58.73
2023-01-07T12:03:04.411Z,54.40
2023-01-07T12:06:21.271Z,49.03
2023-01-07T12:09:37.822Z,46.83
2023-01-07T12:12:47.618Z,49.23
2023-01-07T12:16:01.801Z,57.40
2023-01-07T12:19:23.800Z,58.57
2023-01-07T12:22:47.226Z,60.30
2023-01-07T12:26:07.247Z,52.50
2023-01-07T12:29:32.000Z,57.03
2023-01-07T12:32:53.377Z,57.87
2023-01-07T12:36:09.456Z,47.83
2023-01-07T12:39:26.909Z,51.57
2023-01-07T12:42:41.667Z,53.97
2023-01-07T12:45:55.388Z,41.63
2023-01-07T12:49:13.049Z,46.60
2023-01-07T12:52:32.617Z,47.23
2023-01-07T12:55:47.695Z,50.30
2023-01-07T12:59:02.799Z,54.63
2023-01-07T13:02:25.984Z,102.80
2023-01-07T13:05:43.068Z,116.30
2023-01-07T13:09:00.975Z,145.27
2023-01-07T13:12:41.624Z,158.27
2023-01-07T13:15:53.264Z,147.93
2023-01-07T13:19:03.026Z,172.00
2023-01-07T13:22:20.503Z,143.90
2023-01-07T13:25:40.664Z,130.93
2023-01-07T13:29:06.969Z,143.83
2023-01-07T13:32:31.735Z,157.87
2023-01-07T13:35:51.039Z,142.10
2023-01-07T13:39:17.573Z,101.20
2023-01-07T13:42:39.194Z,150.80
2023-01-07T13:45:56.560Z,144.37
2023-01-07T13:49:07.093Z,180.60
2023-01-07T13:52:20.369Z,179.07
2023-01-07T13:55:36.120Z,207.43
2023-01-07T13:58:47.147Z,159.47
2023-01-07T14:02:18.436Z,179.87
2023-01-07T14:05:30.383Z,181.90
2023-01-07T14:08:40.265Z,147.13
2023-01-07T14:12:09.904Z,149.97
2023-01-07T14:15:38.805Z,184.50
2023-01-07T14:19:03.980Z,166.33
2023-01-07T14:22:24.600Z,162.40
2023-01-07T14:25:48.148Z,81.70
2023-01-07T14:29:19.449Z,76.27
2023-01-07T14:32:33.393Z,94.33
2023-01-07T14:35:53.529Z,60.73
2023-01-07T14:39:03.788Z,53.10
2023-01-07T14:42:27.387Z,57.97
2023-01-07T14:45:53.382Z,56.53
2023-01-07T14:49:32.036Z,53.77
2023-01-07T14:53:13.216Z,60.47
2023-01-07T14:56:37.412Z,61.40
2023-01-07T15:00:11.927Z,56.53
2023-01-07T15:03:39.216Z,62.57
2023-01-07T15:06:50.208Z,63.43
2023-01-07T15:10:17.297Z,61.07
2023-01-07T15:13:39.409Z,71.07
2023-01-07T15:16:53.327Z,61.30
2023-01-07T15:20:06.379Z,79.50
2023-01-07T15:23:24.568Z,91.67
2023-01-07T15:26:46.079Z,119.17
2023-01-07T15:30:02.704Z,86.73
2023-01-07T15:33:33.747Z,118.20
2023-01-07T15:36:48.030Z,114.17
2023-01-07T15:39:58.878Z,100.83
2023-01-07T15:43:23.253Z,78.23
2023-01-07T15:46:34.278Z,97.63
2023-01-07T15:49:44.131Z,1999.90
2023-01-07T15:52:55.502Z,1999.90
2023-01-07T15:56:08.425Z,1999.90
2023-01-07T15:59:25.667Z,1999.90
2023-01-07T16:02:42.724Z,1999.90
2023-01-07T16:05:53.425Z,1999.90
2023-01-07T16:09:15.046Z,1999.90
2023-01-07T16:12:30.045Z,1999.90
2023-01-07T16:15:41.444Z,1999.90
2023-01-07T16:18:56.500Z,1999.90
2023-01-07T16:22:07.032Z,1999.90
2023-01-07T16:25:24.347Z,1999.90
2023-01-07T16:28:37.279Z,1999.90
2023-01-07T16:31:48.908Z,1999.90
2023-01-07T16:35:05.169Z,1999.90
2023-01-07T16:38:17.387Z,1999.90
2023-01-07T16:41:28.876Z,1999.90
2023-01-07T16:45:01.500Z,1999.90
2023-01-07T16:48:21.347Z,1999.90
2023-01-07T16:51:36.240Z,1999.90
2023-01-07T16:54:46.809Z,1999.90
2023-01-07T16:57:56.671Z,1999.90
2023-01-07T17:01:07.390Z,1999.90
2023-01-07T17:04:21.919Z,1999.90
2023-01-07T17:07:32.079Z,1999.90
2023-01-07T17:10:42.166Z,1999.90
2023-01-07T17:13:52.214Z,1999.90
2023-01-07T17:17:06.590Z,1999.90
2023-01-07T17:20:22.607Z,1999.90
2023-01-07T17:23:34.226Z,1999.90
2023-01-07T17:26:44.049Z,1999.90
2023-01-07T17:29:54.318Z,1999.90
2023-01-07T17:33:04.380Z,1999.90
2023-01-07T17:36:18.297Z,1999.90
2023-01-07T17:39:28.718Z,1999.90
2023-01-07T17:42:49.753Z,1999.90
2023-01-07T17:46:00.591Z,1999.90
2023-01-07T17:49:12.022Z,1999.90
2023-01-07T17:52:23.095Z,1999.90
2023-01-07T17:55:36.545Z,1999.90
2023-01-07T17:58:49.180Z,1999.90
2023-01-07T18:02:00.513Z,1999.90
2023-01-07T18:05:15.584Z,1999.90
2023-01-07T18:08:26.683Z,1999.90
2023-01-07T18:11:50.899Z,1999.90
2023-01-07T18:15:02.460Z,1999.90
2023-01-07T18:18:12.481Z,1999.90
2023-01-07T18:21:22.187Z,1999.90
2023-01-07T18:24:34.697Z,1999.90
2023-01-07T18:27:48.007Z,1999.90
2023-01-07T18:30:57.727Z,1999.90
2023-01-07T18:34:08.059Z,1999.90
2023-01-07T18:37:18.021Z,1999.90
2023-01-07T18:40:29.326Z,1999.90
2023-01-07T18:43:39.300Z,1999.90
2023-01-07T18:46:49.149Z,1999.90
2023-01-07T18:49:59.138Z,1999.90
2023-01-07T18:53:09.542Z,1999.90
2023-01-07T18:56:20.588Z,1999.90
2023-01-07T18:59:30.295Z,1999.90
2023-01-07T19:02:40.092Z,1999.90
2023-01-07T19:05:49.781Z,1999.90
2023-01-07T19:08:59.467Z,1999.90
2023-01-07T19:12:12.132Z,1999.90
2023-01-07T19:15:21.846Z,1999.90
2023-01-07T19:18:31.628Z,1999.90
2023-01-07T19:21:42.675Z,1999.90
2023-01-07T19:24:52.403Z,1999.90
2023-01-07T19:28:03.427Z,1999.90
2023-01-07T19:31:13.962Z,1999.90
2023-01-07T19:34:23.679Z,1999.90
2023-01-07T19:37:33.403Z,1999.90
2023-01-07T19:40:44.694Z,1999.90
2023-01-07T19:43:59.188Z,1999.90
2023-01-07T19:47:09.351Z,1999.90
2023-01-07T19:50:19.059Z,1999.90
2023-01-07T19:53:30.317Z,1999.90
2023-01-07T19:56:40.799Z,1999.90
2023-01-07T19:59:51.813Z,1999.90
2023-01-07T20:03:01.696Z,1999.90
2023-01-07T20:06:12.799Z,1999.90
2023-01-07T20:09:22.981Z,73.80
2023-01-07T20:12:33.140Z,57.60
2023-01-07T20:15:44.091Z,56.93
2023-01-07T20:18:55.987Z,45.10
2023-01-07T20:22:05.703Z,52.63
2023-01-07T20:25:15.561Z,56.47
2023-01-07T20:28:25.376Z,41.67
2023-01-07T20:31:36.768Z,38.53
2023-01-07T20:34:46.582Z,38.67
2023-01-07T20:37:56.352Z,52.07
2023-01-07T20:41:06.736Z,48.70
2023-01-07T20:44:16.450Z,56.40
2023-01-07T20:47:27.746Z,64.70
2023-01-07T20:50:39.557Z,49.37
2023-01-07T20:53:49.353Z,65.73
2023-01-07T20:56:59.259Z,52.10
2023-01-07T21:00:10.271Z,41.60
2023-01-07T21:03:21.236Z,69.00
2023-01-07T21:06:31.296Z,56.87
2023-01-07T21:09:43.331Z,72.20
2023-01-07T21:12:53.275Z,74.00
2023-01-07T21:16:04.317Z,53.70
2023-01-07T21:19:15.350Z,71.50
2023-01-07T21:22:25.080Z,44.13
2023-01-07T21:25:35.052Z,44.03
2023-01-07T21:28:44.878Z,59.00
2023-01-07T21:31:54.882Z,36.57
2023-01-07T21:45:14.400Z,60.00
2023-01-07T21:48:24.164Z,50.43
2023-01-07T21:51:33.883Z,73.80
2023-01-07T21:54:43.617Z,108.83
2023-01-07T21:57:53.442Z,80.87
2023-01-07T22:01:06.023Z,70.77
2023-01-07T22:04:15.958Z,71.73
2023-01-07T22:07:25.990Z,67.60
2023-01-07T22:10:35.756Z,58.33
2023-01-07T22:13:45.860Z,74.63
2023-01-07T22:16:57.309Z,91.80
2023-01-07T22:20:08.107Z,52.47
2023-01-07T22:23:18.082Z,77.73
2023-01-07T22:26:27.869Z,126.90
2023-01-07T22:29:37.662Z,47.80
2023-01-07T22:32:48.699Z,59.87
2023-01-07T22:35:59.714Z,49.33
2023-01-07T22:39:14.850Z,54.33
2023-01-07T22:42:30.018Z,54.87
2023-01-07T22:45:43.336Z,1999.90
2023-01-07T22:48:54.703Z,1999.90
2023-01-07T22:52:06.339Z,1999.90
2023-01-07T22:55:16.986Z,1999.90
2023-01-07T22:58:27.210Z,1999.90
2023-01-07T23:01:37.815Z,1999.90
2023-01-07T23:04:49.041Z,1999.90
2023-01-07T23:07:59.224Z,1999.90
2023-01-07T23:11:10.589Z,1999.90
2023-01-07T23:14:22.252Z,1999.90
2023-01-07T23:17:31.904Z,1999.90
2023-01-07T23:20:44.066Z,1999.90
2023-01-07T23:23:53.830Z,1999.90
2023-01-07T23:27:03.547Z,1999.90
2023-01-07T23:30:14.047Z,1999.90
2023-01-07T23:33:26.724Z,1999.90
2023-01-07T23:36:38.856Z,1999.90
2023-01-07T23:39:48.532Z,1999.90
